Time;durP1;ratioP1;P1;durP2;ratioP2;P2;SDS_P1;SDS_P2;PMS_P1;PMS_P2;Temp;Humidity;BMP_temperature;BMP_pressure;BME280_temperature;BME280_humidity;BME280_pressure;Samples;Min_cycle;Max_cycle;Signal;HPM_P1;HPM_P2
2021/11/22 00:00:31;;;;;;;32.63;30.00;;;1.70;99.90;;;;;;5078281;28;20811;-69
2021/11/22 00:03:00;;;;;;;33.17;30.47;;;1.70;99.90;;;;;;5082741;28;20485;-69
2021/11/22 00:05:27;;;;;;;34.67;31.50;;;1.70;99.90;;;;;;5086268;28;20465;-69
2021/11/22 00:07:54;;;;;;;32.23;29.90;;;1.80;99.90;;;;;;5083148;28;20576;-68
2021/11/22 00:10:22;;;;;;;32.87;30.37;;;2.00;99.90;;;;;;5078072;28;20509;-69
2021/11/22 00:12:51;;;;;;;33.77;31.00;;;2.00;99.90;;;;;;5083769;28;20468;-69
2021/11/22 00:15:19;;;;;;;33.77;31.03;;;2.10;99.90;;;;;;5086637;28;20468;-69
2021/11/22 00:17:47;;;;;;;32.70;30.30;;;2.00;99.90;;;;;;5083481;28;20900;-69
2021/11/22 00:20:16;;;;;;;33.53;31.00;;;2.00;99.90;;;;;;5083358;28;20465;-69
2021/11/22 00:22:44;;;;;;;33.83;30.67;;;2.10;99.90;;;;;;5085124;28;20469;-69
2021/11/22 00:25:13;;;;;;;34.10;31.80;;;2.10;99.90;;;;;;5082627;28;20468;-69
2021/11/22 00:27:41;;;;;;;34.13;31.63;;;2.10;99.90;;;;;;5076645;28;20493;-69
2021/11/22 00:30:10;;;;;;;33.30;30.60;;;2.10;99.90;;;;;;5081670;28;20512;-69
2021/11/22 00:32:39;;;;;;;33.67;30.57;;;2.20;99.90;;;;;;5084974;28;20514;-69
2021/11/22 00:35:07;;;;;;;34.60;31.60;;;2.30;99.90;;;;;;5084213;28;20529;-69
2021/11/22 00:37:37;;;;;;;31.50;28.97;;;2.30;99.90;;;;;;5085966;28;20650;-69
2021/11/22 00:40:04;;;;;;;32.13;29.63;;;2.40;99.90;;;;;;5081035;28;20488;-69
2021/11/22 00:42:32;;;;;;;32.43;29.77;;;2.50;99.90;;;;;;5079430;28;20554;-69
2021/11/22 00:44:58;;;;;;;33.23;30.10;;;2.50;99.90;;;;;;5082599;28;20499;-69
2021/11/22 00:47:28;;;;;;;33.87;30.73;;;2.60;99.90;;;;;;5078574;28;20486;-69
2021/11/22 00:49:55;;;;;;;32.17;29.30;;;2.70;99.90;;;;;;5079085;28;20457;-69
2021/11/22 00:52:23;;;;;;;33.50;30.23;;;2.80;99.90;;;;;;5080093;28;20457;-69
2021/11/22 00:54:50;;;;;;;34.20;31.03;;;2.90;99.90;;;;;;5080702;28;20462;-69
2021/11/22 00:57:17;;;;;;;32.40;29.70;;;3.00;99.90;;;;;;5076216;28;20458;-70
2021/11/22 00:59:44;;;;;;;30.37;27.77;;;3.00;99.90;;;;;;5080060;28;20472;-69
2021/11/22 01:02:10;;;;;;;31.60;28.70;;;3.00;99.90;;;;;;5077734;28;20469;-69
2021/11/22 01:04:40;;;;;;;31.47;28.50;;;3.10;99.90;;;;;;5080445;28;20990;-69
2021/11/22 01:07:08;;;;;;;30.40;28.07;;;3.10;99.90;;;;;;5086989;28;20488;-69
2021/11/22 01:09:35;;;;;;;31.10;28.60;;;3.10;99.90;;;;;;5084225;28;20477;-69
2021/11/22 01:12:02;;;;;;;31.77;28.93;;;3.20;99.90;;;;;;5083196;28;20460;-69
2021/11/22 01:14:30;;;;;;;31.33;28.53;;;3.20;99.90;;;;;;5073019;28;20487;-69
2021/11/22 01:16:56;;;;;;;29.70;27.50;;;3.20;99.90;;;;;;5075569;28;20462;-69
2021/11/22 01:19:23;;;;;;;32.67;29.63;;;3.20;99.90;;;;;;5084549;28;20489;-69
2021/11/22 01:21:52;;;;;;;30.33;27.80;;;3.20;99.90;;;;;;5081755;28;20465;-69
2021/11/22 01:24:19;;;;;;;33.50;30.67;;;3.20;99.90;;;;;;5079843;28;20469;-69
2021/11/22 01:26:46;;;;;;;30.23;27.83;;;3.20;99.90;;;;;;5083345;28;20481;-69
2021/11/22 01:29:12;;;;;;;37.73;28.03;;;3.20;99.90;;;;;;5073704;28;20503;-69
2021/11/22 01:31:41;;;;;;;32.90;30.70;;;3.10;99.90;;;;;;5076252;28;20482;-69
2021/11/22 01:34:07;;;;;;;32.13;29.67;;;3.10;99.90;;;;;;5084589;28;20465;-69
2021/11/22 01:36:34;;;;;;;32.13;29.27;;;3.10;99.90;;;;;;5080302;28;20576;-69
2021/11/22 01:39:04;;;;;;;30.70;28.10;;;3.20;99.90;;;;;;5081742;28;20858;-69
2021/11/22 01:41:32;;;;;;;31.30;28.40;;;3.30;99.90;;;;;;5078072;28;20481;-69
2021/11/22 01:43:59;;;;;;;29.77;27.57;;;3.40;99.90;;;;;;5083177;28;21037;-69
2021/11/22 01:46:28;;;;;;;30.17;27.67;;;3.50;99.90;;;;;;5074802;28;20455;-69
2021/11/22 01:48:56;;;;;;;29.17;26.80;;;3.60;99.90;;;;;;5083906;28;20469;-69
2021/11/22 01:51:23;;;;;;;29.97;27.67;;;3.80;99.90;;;;;;5076791;28;20481;-69
2021/11/22 01:53:50;;;;;;;29.37;26.80;;;3.90;99.90;;;;;;5078895;28;20860;-69
2021/11/22 01:56:20;;;;;;;30.50;27.50;;;4.00;99.90;;;;;;5075689;28;20469;-69
2021/11/22 01:58:46;;;;;;;30.40;27.60;;;4.10;99.90;;;;;;5080716;28;20545;-69
2021/11/22 02:01:14;;;;;;;31.20;28.60;;;4.10;99.90;;;;;;5079569;28;20558;-69
2021/11/22 02:03:43;;;;;;;32.50;29.77;;;4.10;99.90;;;;;;5074438;28;20467;-69
2021/11/22 02:06:10;;;;;;;32.40;29.80;;;4.20;99.90;;;;;;5079338;28;20493;-69
2021/11/22 02:08:38;;;;;;;33.73;30.80;;;4.30;99.90;;;;;;5082991;28;20492;-69
2021/11/22 02:11:06;;;;;;;38.93;35.20;;;4.40;99.90;;;;;;5078529;28;20556;-69
2021/11/22 02:13:35;;;;;;;38.30;34.20;;;4.40;99.90;;;;;;5075698;28;20454;-69
2021/11/22 02:16:02;;;;;;;35.63;32.70;;;4.50;99.90;;;;;;5085666;28;20458;-69
2021/11/22 02:18:29;;;;;;;37.97;34.60;;;4.50;99.90;;;;;;5083447;28;20539;-69
2021/11/22 02:20:59;;;;;;;43.23;39.00;;;4.50;99.90;;;;;;5075472;28;20502;-69
2021/11/22 02:23:26;;;;;;;41.90;38.00;;;4.60;99.90;;;;;;5079185;28;20529;-69
2021/11/22 02:25:53;;;;;;;41.57;37.20;;;4.60;99.90;;;;;;5083093;28;20466;-69
2021/11/22 02:28:20;;;;;;;40.93;37.23;;;4.70;99.90;;;;;;5080868;28;20501;-69
2021/11/22 02:30:49;;;;;;;43.20;37.80;;;4.70;99.90;;;;;;5078644;28;20454;-69
2021/11/22 02:33:18;;;;;;;42.07;38.00;;;4.70;99.90;;;;;;5078736;28;20525;-70
2021/11/22 02:35:49;;;;;;;41.90;37.70;;;4.70;99.90;;;;;;5081396;28;20455;-69
2021/11/22 02:38:20;;;;;;;42.73;38.33;;;4.70;99.90;;;;;;5077215;28;20570;-69
2021/11/22 02:40:47;;;;;;;43.37;38.83;;;4.70;99.90;;;;;;5075770;28;20668;-69
2021/11/22 02:43:14;;;;;;;43.27;38.87;;;4.70;99.90;;;;;;5075164;28;20486;-69
2021/11/22 02:45:42;;;;;;;44.10;39.60;;;4.80;99.90;;;;;;5074682;28;20455;-69
2021/11/22 02:48:09;;;;;;;41.73;37.77;;;4.80;99.90;;;;;;5076883;28;20495;-69
2021/11/22 02:50:36;;;;;;;43.87;39.50;;;4.80;99.90;;;;;;5078006;28;20542;-69
2021/11/22 02:53:04;;;;;;;41.90;37.50;;;4.80;99.90;;;;;;5082925;28;20844;-69
2021/11/22 02:55:32;;;;;;;45.43;39.90;;;4.90;99.90;;;;;;5081541;28;20496;-69
2021/11/22 02:58:00;;;;;;;55.67;45.23;;;4.90;99.90;;;;;;5074536;28;20469;-70
2021/11/22 03:00:28;;;;;;;48.97;43.40;;;4.90;99.90;;;;;;5076636;28;20454;-69
2021/11/22 03:02:56;;;;;;;55.00;44.43;;;5.00;99.90;;;;;;5080017;28;20469;-69
2021/11/22 03:05:24;;;;;;;49.13;42.10;;;4.90;99.90;;;;;;5081208;28;20463;-69
2021/11/22 03:07:53;;;;;;;56.53;46.00;;;4.90;99.90;;;;;;5080284;28;20490;-69
2021/11/22 03:10:22;;;;;;;62.13;45.90;;;4.90;99.90;;;;;;5082795;28;20469;-70
2021/11/22 03:12:53;;;;;;;50.13;42.57;;;5.00;99.90;;;;;;5082268;28;20466;-69
2021/11/22 03:15:21;;;;;;;54.73;43.47;;;5.10;99.90;;;;;;5082573;28;20458;-69
2021/11/22 03:17:49;;;;;;;54.70;43.53;;;5.10;99.90;;;;;;5081845;28;20829;-69
2021/11/22 03:20:18;;;;;;;59.77;45.80;;;5.10;99.90;;;;;;5085960;28;20462;-70
2021/11/22 03:22:47;;;;;;;58.97;44.30;;;5.10;99.90;;;;;;5084697;28;20458;-69
2021/11/22 03:25:15;;;;;;;58.73;44.97;;;5.00;99.90;;;;;;5081900;28;20458;-70
2021/11/22 03:27:42;;;;;;;58.60;43.20;;;5.10;99.90;;;;;;5088029;28;20500;-70
2021/11/22 03:30:13;;;;;;;55.73;43.00;;;5.20;99.90;;;;;;5082395;28;20462;-69
2021/11/22 03:32:39;;;;;;;56.80;45.03;;;5.20;99.90;;;;;;5081591;28;20479;-69
2021/11/22 03:35:07;;;;;;;58.67;43.53;;;5.30;99.90;;;;;;5081742;28;20473;-69
2021/11/22 03:37:35;;;;;;;55.93;42.40;;;5.30;99.90;;;;;;5080073;28;20491;-70
2021/11/22 03:40:02;;;;;;;58.50;40.97;;;5.40;99.90;;;;;;5083246;28;20451;-69
2021/11/22 03:42:36;;;;;;;60.20;42.37;;;5.30;99.90;;;;;;5088051;28;20477;-69
2021/11/22 03:45:05;;;;;;;52.97;38.90;;;5.40;99.90;;;;;;5080314;28;20496;-69
2021/11/22 03:47:34;;;;;;;50.40;40.83;;;5.40;99.90;;;;;;5080856;28;20572;-72
2021/11/22 03:50:01;;;;;;;48.50;38.83;;;5.40;99.90;;;;;;5081384;28;20466;-72
2021/11/22 03:52:28;;;;;;;41.10;36.67;;;5.50;99.90;;;;;;5086428;28;20512;-72
2021/11/22 03:54:55;;;;;;;41.30;36.17;;;5.50;99.90;;;;;;5077653;28;20458;-70
2021/11/22 03:57:26;;;;;;;44.80;37.23;;;5.50;99.90;;;;;;5085504;28;20892;-73
2021/11/22 03:59:53;;;;;;;44.53;36.00;;;5.50;99.90;;;;;;5078474;28;20521;-71
2021/11/22 04:02:20;;;;;;;41.83;36.13;;;5.50;99.90;;;;;;5084263;28;20465;-73
2021/11/22 04:04:49;;;;;;;40.87;34.57;;;5.60;99.90;;;;;;5081637;28;20461;-73
2021/11/22 04:07:16;;;;;;;46.70;35.50;;;5.60;99.90;;;;;;5080768;28;20466;-70
2021/11/22 04:09:43;;;;;;;41.03;35.00;;;5.70;99.90;;;;;;5087782;28;21030;-73
2021/11/22 04:12:10;;;;;;;39.90;34.00;;;5.70;99.90;;;;;;5081435;28;20476;-69
2021/11/22 04:14:37;;;;;;;44.10;34.30;;;5.60;99.90;;;;;;5081426;28;20823;-70
2021/11/22 04:17:04;;;;;;;44.83;33.13;;;5.70;99.90;;;;;;5084647;28;20470;-72
2021/11/22 04:19:31;;;;;;;37.20;33.10;;;5.60;99.90;;;;;;5083301;28;20464;-72
2021/11/22 04:22:00;;;;;;;43.33;33.20;;;5.60;99.90;;;;;;5081275;28;20928;-71
2021/11/22 04:24:27;;;;;;;40.70;31.90;;;5.70;99.90;;;;;;5087523;28;20458;-71
2021/11/22 04:26:54;;;;;;;37.17;30.57;;;5.70;99.90;;;;;;5081748;28;20466;-71
2021/11/22 04:29:21;;;;;;;36.00;30.67;;;5.60;99.90;;;;;;5076182;28;20490;-71
2021/11/22 04:31:48;;;;;;;39.20;31.50;;;5.60;99.90;;;;;;5078938;28;20493;-73
2021/11/22 04:34:15;;;;;;;35.13;31.10;;;5.60;99.90;;;;;;5084352;28;20447;-72
2021/11/22 04:36:42;;;;;;;41.63;30.17;;;5.60;99.90;;;;;;5082554;28;20949;-70
2021/11/22 04:39:11;;;;;;;31.43;26.93;;;5.60;99.90;;;;;;5080793;28;20500;-69
2021/11/22 04:41:37;;;;;;;37.73;30.30;;;5.60;99.90;;;;;;5081742;28;20469;-72
2021/11/22 04:44:05;;;;;;;34.23;28.67;;;5.70;99.90;;;;;;5080235;28;20498;-73
2021/11/22 04:46:34;;;;;;;28.00;25.23;;;5.60;99.90;;;;;;5084484;28;20462;-70
2021/11/22 04:49:01;;;;;;;32.33;27.57;;;5.60;99.90;;;;;;5077938;28;20491;-69
2021/11/22 04:51:27;;;;;;;28.83;25.93;;;5.60;99.90;;;;;;5084316;28;20462;-73
2021/11/22 04:53:55;;;;;;;31.13;27.87;;;5.60;99.90;;;;;;5082240;28;20466;-71
2021/11/22 04:56:24;;;;;;;32.37;26.87;;;5.60;99.90;;;;;;5075945;28;20458;-73
2021/11/22 04:58:51;;;;;;;31.87;28.63;;;5.60;99.90;;;;;;5080062;28;20459;-70
2021/11/22 05:01:18;;;;;;;32.77;27.87;;;5.70;99.90;;;;;;5083488;28;20488;-70
2021/11/22 05:03:48;;;;;;;33.27;29.77;;;5.70;99.90;;;;;;5085007;28;20450;-71
2021/11/22 05:06:15;;;;;;;31.97;28.57;;;5.70;99.90;;;;;;5074335;28;20492;-73
2021/11/22 05:08:42;;;;;;;32.67;29.27;;;5.70;99.90;;;;;;5075784;28;20558;-74
2021/11/22 05:11:10;;;;;;;31.80;28.40;;;5.70;99.90;;;;;;5082721;28;20470;-73
2021/11/22 05:13:39;;;;;;;28.00;25.10;;;5.80;99.90;;;;;;5075675;28;20454;-71
2021/11/22 05:16:06;;;;;;;30.20;27.03;;;5.70;99.90;;;;;;5084945;28;20458;-71
2021/11/22 05:18:32;;;;;;;26.83;24.30;;;5.70;99.90;;;;;;5084948;28;21024;-72
2021/11/22 05:20:59;;;;;;;28.43;25.53;;;5.70;99.90;;;;;;5081710;28;20458;-71
2021/11/22 05:23:26;;;;;;;27.70;24.83;;;5.70;99.90;;;;;;5079699;28;20455;-70
2021/11/22 05:25:54;;;;;;;29.07;26.03;;;5.70;99.90;;;;;;5072675;28;20458;-74
2021/11/22 05:28:21;;;;;;;27.70;25.10;;;5.70;99.90;;;;;;5082453;28;20494;-72
2021/11/22 05:30:50;;;;;;;27.87;24.90;;;5.80;99.90;;;;;;5083140;28;20454;-70
2021/11/22 05:33:17;;;;;;;26.47;23.70;;;5.80;99.90;;;;;;5079461;28;20458;-72
2021/11/22 05:35:45;;;;;;;27.27;24.63;;;5.80;99.90;;;;;;5079301;28;20494;-71
2021/11/22 05:38:12;;;;;;;26.13;23.57;;;5.70;99.90;;;;;;5084104;28;20467;-73
2021/11/22 05:40:39;;;;;;;28.43;25.77;;;5.80;99.90;;;;;;5086049;28;21302;-74
2021/11/22 05:43:06;;;;;;;26.77;24.37;;;5.90;99.90;;;;;;5086225;28;20494;-70
2021/11/22 05:45:33;;;;;;;29.73;26.83;;;6.00;99.90;;;;;;5081223;28;20964;-72
2021/11/22 05:48:03;;;;;;;30.40;27.50;;;5.90;99.90;;;;;;5081701;28;20457;-72
2021/11/22 05:50:31;;;;;;;28.43;25.73;;;6.00;99.90;;;;;;5082203;28;20450;-71
2021/11/22 05:53:00;;;;;;;30.57;27.43;;;6.00;99.90;;;;;;5082428;28;20467;-72
2021/11/22 05:55:37;;;;;;;28.93;26.10;;;6.00;99.90;;;;;;5080340;28;20466;-73
2021/11/22 05:58:06;;;;;;;29.33;25.57;;;5.90;99.90;;;;;;5082875;28;20450;-68
2021/11/22 06:00:33;;;;;;;26.40;24.10;;;5.90;99.90;;;;;;5083951;28;20952;-71
2021/11/22 06:03:02;;;;;;;29.47;26.57;;;5.80;99.90;;;;;;5079525;28;20464;-73
2021/11/22 06:05:29;;;;;;;30.00;27.10;;;5.70;99.90;;;;;;5081928;28;20549;-71
2021/11/22 06:07:57;;;;;;;28.07;25.50;;;5.70;99.90;;;;;;5084612;28;20554;-72
2021/11/22 06:10:24;;;;;;;28.37;25.67;;;5.60;99.90;;;;;;5081552;28;20898;-74
2021/11/22 06:12:50;;;;;;;28.90;25.90;;;5.60;99.90;;;;;;5082680;28;20457;-70
2021/11/22 06:15:18;;;;;;;27.70;25.23;;;5.50;99.90;;;;;;5080414;28;20462;-72
2021/11/22 06:17:45;;;;;;;28.33;25.53;;;5.40;99.90;;;;;;5079347;28;20459;-71
2021/11/22 06:20:13;;;;;;;27.30;24.80;;;5.30;99.90;;;;;;5075656;28;20466;-74
2021/11/22 06:22:41;;;;;;;28.43;25.83;;;5.20;99.90;;;;;;5070498;28;20924;-71
2021/11/22 06:25:08;;;;;;;27.17;24.70;;;5.20;99.90;;;;;;5079548;28;20473;-69
2021/11/22 06:27:36;;;;;;;28.13;25.40;;;5.10;99.90;;;;;;5085628;28;20469;-70
2021/11/22 06:30:06;;;;;;;30.63;27.90;;;5.10;99.90;;;;;;5079261;28;20490;-69
2021/11/22 06:32:34;;;;;;;28.43;25.80;;;5.00;99.90;;;;;;5078857;28;20485;-72
2021/11/22 06:35:01;;;;;;;28.53;25.87;;;4.90;99.90;;;;;;5082581;28;20454;-71
2021/11/22 06:37:32;;;;;;;28.20;25.50;;;4.80;99.90;;;;;;5083662;28;20980;-71
2021/11/22 06:40:00;;;;;;;27.30;24.70;;;4.80;99.90;;;;;;5086234;28;20450;-73
2021/11/22 06:42:27;;;;;;;27.50;25.00;;;4.80;99.90;;;;;;5080241;28;20948;-72
2021/11/22 06:44:54;;;;;;;27.93;25.10;;;4.80;99.90;;;;;;5078100;28;20482;-69
2021/11/22 06:47:24;;;;;;;28.53;25.60;;;4.70;99.90;;;;;;5076450;28;20454;-72
2021/11/22 06:49:51;;;;;;;26.93;24.43;;;4.70;99.90;;;;;;5079858;28;20492;-73
2021/11/22 06:52:20;;;;;;;32.83;26.23;;;4.80;99.90;;;;;;5080091;28;20466;-71
2021/11/22 06:54:49;;;;;;;27.83;25.17;;;4.90;99.90;;;;;;5085283;28;20625;-69
2021/11/22 06:57:16;;;;;;;29.23;26.43;;;4.90;99.90;;;;;;5081277;28;20470;-72
2021/11/22 06:59:44;;;;;;;29.10;26.30;;;5.00;99.90;;;;;;5077473;28;20485;-69
2021/11/22 07:02:13;;;;;;;31.07;27.73;;;5.00;99.90;;;;;;5085608;28;20531;-73
2021/11/22 07:04:40;;;;;;;29.67;26.80;;;5.10;99.90;;;;;;5086327;28;20461;-71
2021/11/22 07:07:07;;;;;;;29.50;26.37;;;5.10;99.90;;;;;;5093109;28;20944;-72
2021/11/22 07:09:34;;;;;;;28.03;25.23;;;5.00;99.90;;;;;;5079781;28;20553;-70
2021/11/22 07:12:03;;;;;;;30.03;26.73;;;5.00;99.90;;;;;;5082122;28;21018;-73
2021/11/22 07:14:31;;;;;;;28.60;25.90;;;4.90;99.90;;;;;;5081558;28;20458;-70
2021/11/22 07:16:58;;;;;;;30.17;26.97;;;4.90;99.90;;;;;;5084571;28;20978;-69
2021/11/22 07:19:26;;;;;;;28.87;25.93;;;4.90;99.90;;;;;;5084836;28;20454;-72
2021/11/22 07:21:53;;;;;;;28.37;25.63;;;4.90;99.90;;;;;;5083482;28;20817;-74
2021/11/22 07:24:22;;;;;;;28.93;25.67;;;5.00;99.90;;;;;;5079734;28;20457;-73
2021/11/22 07:26:49;;;;;;;28.87;25.83;;;5.00;99.90;;;;;;5083573;28;20455;-73
2021/11/22 07:29:18;;;;;;;28.87;26.17;;;5.10;99.90;;;;;;5080712;28;20542;-71
2021/11/22 07:31:45;;;;;;;28.10;25.43;;;5.10;99.90;;;;;;5088093;28;20482;-72
2021/11/22 07:34:13;;;;;;;27.73;25.23;;;5.20;99.90;;;;;;5079318;28;21028;-73
2021/11/22 07:36:41;;;;;;;26.87;24.07;;;5.20;99.90;;;;;;5080628;28;20449;-73
2021/11/22 07:39:08;;;;;;;26.50;24.00;;;5.20;99.90;;;;;;5078611;28;20749;-73
2021/11/22 07:41:39;;;;;;;27.17;24.27;;;5.20;99.90;;;;;;5084151;28;20458;-72
2021/11/22 07:44:05;;;;;;;28.23;25.40;;;5.30;99.90;;;;;;5082721;28;20550;-72
2021/11/22 07:46:34;;;;;;;32.93;26.33;;;5.30;99.90;;;;;;5085113;28;20789;-70
2021/11/22 07:49:01;;;;;;;27.77;25.00;;;5.30;99.90;;;;;;5086151;28;20493;-70
2021/11/22 07:51:29;;;;;;;27.20;24.77;;;5.40;99.90;;;;;;5079644;28;20982;-69
2021/11/22 07:53:56;;;;;;;28.27;25.40;;;5.40;99.90;;;;;;5080811;28;20468;-72
2021/11/22 07:56:23;;;;;;;27.43;24.73;;;5.30;99.90;;;;;;5082780;28;20462;-73
2021/11/22 07:58:51;;;;;;;32.17;27.80;;;5.30;99.90;;;;;;5082645;28;20646;-73
2021/11/22 08:01:17;;;;;;;29.37;26.47;;;5.30;99.90;;;;;;5081113;28;20475;-73
2021/11/22 08:03:48;;;;;;;31.50;28.33;;;5.30;99.90;;;;;;5082354;28;20470;-74
2021/11/22 08:06:16;;;;;;;30.23;27.03;;;5.40;99.90;;;;;;5084849;28;20461;-73
2021/11/22 08:08:42;;;;;;;30.87;27.63;;;5.50;99.90;;;;;;5079522;28;20821;-71
2021/11/22 08:11:30;;;;;;;29.37;26.47;;;5.50;99.90;;;;;;5084913;28;20803;-72
2021/11/22 08:13:57;;;;;;;31.23;28.03;;;5.50;99.90;;;;;;5081007;28;20569;-71
2021/11/22 08:16:25;;;;;;;35.43;31.50;;;5.50;99.90;;;;;;5081552;28;21073;-74
2021/11/22 08:18:53;;;;;;;37.40;31.43;;;5.60;99.90;;;;;;5085494;28;20471;-73
2021/11/22 08:21:20;;;;;;;33.03;29.47;;;5.60;99.90;;;;;;5084709;28;20454;-71
2021/11/22 08:23:47;;;;;;;36.93;32.07;;;5.70;99.90;;;;;;5078656;28;20803;-70
2021/11/22 08:26:13;;;;;;;39.30;30.63;;;5.70;99.90;;;;;;5079462;28;20703;-71
2021/11/22 08:28:40;;;;;;;39.90;32.23;;;5.70;99.90;;;;;;5079875;28;20531;-72
2021/11/22 08:31:08;;;;;;;35.07;31.23;;;5.70;99.90;;;;;;5077808;28;20466;-72
2021/11/22 08:33:35;;;;;;;38.90;31.73;;;5.90;99.90;;;;;;5077137;28;21521;-71
2021/11/22 08:36:04;;;;;;;33.97;30.40;;;6.00;99.90;;;;;;5083583;28;20561;-72
2021/11/22 08:38:30;;;;;;;33.63;30.10;;;5.90;99.90;;;;;;5076932;28;20508;-74
2021/11/22 08:40:58;;;;;;;35.37;31.70;;;6.00;99.90;;;;;;5076118;28;20976;-70
2021/11/22 08:43:24;;;;;;;37.10;33.17;;;5.90;99.90;;;;;;5082263;28;20575;-69
2021/11/22 08:45:52;;;;;;;33.53;29.80;;;6.20;99.90;;;;;;5082127;28;20456;-71
2021/11/22 08:48:21;;;;;;;35.03;31.40;;;6.30;99.90;;;;;;5078046;28;20893;-70
2021/11/22 08:50:49;;;;;;;36.13;32.27;;;6.30;99.90;;;;;;5074563;28;20506;-74
2021/11/22 08:53:17;;;;;;;37.37;31.73;;;6.30;99.90;;;;;;5083558;28;20514;-72
2021/11/22 08:55:45;;;;;;;34.73;31.10;;;6.20;99.90;;;;;;5082561;28;20463;-71
2021/11/22 08:58:12;;;;;;;36.03;31.50;;;6.20;99.90;;;;;;5085423;28;20454;-73
2021/11/22 09:00:42;;;;;;;36.10;31.70;;;6.30;99.90;;;;;;5079859;28;20470;-73
2021/11/22 09:03:08;;;;;;;38.83;31.90;;;6.40;99.90;;;;;;5081426;28;20458;-70
2021/11/22 09:05:36;;;;;;;34.07;30.27;;;6.30;99.90;;;;;;5069979;28;20461;-70
2021/11/22 09:08:04;;;;;;;34.87;31.20;;;6.40;99.90;;;;;;5079233;28;20586;-72
2021/11/22 09:10:32;;;;;;;34.67;31.27;;;6.40;99.90;;;;;;5073885;28;20793;-70
2021/11/22 09:13:00;;;;;;;32.73;29.20;;;6.40;99.90;;;;;;5078893;28;20462;-71
2021/11/22 09:15:27;;;;;;;33.67;30.20;;;6.30;99.90;;;;;;5072902;28;20895;-74
2021/11/22 09:17:54;;;;;;;32.40;28.97;;;6.30;99.90;;;;;;5078346;28;20459;-70
2021/11/22 09:20:23;;;;;;;36.97;29.10;;;6.30;99.90;;;;;;5074566;28;20490;-73
2021/11/22 09:22:49;;;;;;;32.97;29.87;;;6.20;99.90;;;;;;5076924;28;20490;-74
2021/11/22 09:25:18;;;;;;;32.80;29.70;;;6.30;99.90;;;;;;5080105;28;20453;-73
2021/11/22 09:27:47;;;;;;;33.07;29.57;;;6.30;99.90;;;;;;5075148;28;20868;-74
2021/11/22 09:30:15;;;;;;;32.57;29.17;;;6.30;99.90;;;;;;5072414;28;20518;-72
2021/11/22 09:32:41;;;;;;;29.43;26.30;;;6.10;99.90;;;;;;5071637;28;20936;-72
2021/11/22 09:35:10;;;;;;;31.33;28.43;;;6.10;99.90;;;;;;5078438;28;20463;-74
2021/11/22 09:37:37;;;;;;;31.20;27.80;;;6.00;99.90;;;;;;5074354;28;20933;-70
2021/11/22 09:40:07;;;;;;;31.37;28.40;;;5.80;99.90;;;;;;5081267;28;20461;-73
2021/11/22 09:42:35;;;;;;;30.00;27.30;;;5.70;99.90;;;;;;5078044;28;21016;-72
2021/11/22 09:45:05;;;;;;;35.63;30.83;;;5.60;99.90;;;;;;5046692;28;20737;-71
2021/11/22 09:47:33;;;;;;;30.27;27.23;;;5.50;99.90;;;;;;5056078;28;20818;-70
2021/11/22 09:50:02;;;;;;;34.67;31.13;;;5.60;99.90;;;;;;5048929;28;20491;-74
2021/11/22 09:52:30;;;;;;;32.53;29.40;;;5.60;99.90;;;;;;5057328;28;20471;-72
2021/11/22 09:54:58;;;;;;;29.77;27.03;;;5.60;99.90;;;;;;5058634;28;20470;-72
2021/11/22 09:57:25;;;;;;;33.07;29.53;;;5.70;99.90;;;;;;5054842;28;20474;-70
2021/11/22 09:59:51;;;;;;;32.30;29.20;;;5.80;99.90;;;;;;5051731;28;20464;-72
2021/11/22 10:02:20;;;;;;;31.00;28.20;;;5.90;99.90;;;;;;5048915;28;20550;-73
2021/11/22 10:04:47;;;;;;;32.83;29.83;;;6.10;99.90;;;;;;5055949;28;20550;-74
2021/11/22 10:07:16;;;;;;;33.60;30.43;;;6.20;99.90;;;;;;5062334;28;20456;-71
2021/11/22 10:09:48;;;;;;;33.60;30.60;;;6.20;99.90;;;;;;5055186;28;20494;-71
2021/11/22 10:12:18;;;;;;;34.27;30.80;;;6.40;99.90;;;;;;5051211;28;20467;-70
2021/11/22 10:14:48;;;;;;;30.57;27.83;;;6.50;99.90;;;;;;5053206;28;20803;-70
2021/11/22 10:17:25;;;;;;;30.37;27.77;;;6.70;99.90;;;;;;5058676;28;20473;-71
2021/11/22 10:20:21;;;;;;;29.17;26.67;;;6.70;99.90;;;;;;5057963;28;20487;-72
2021/11/22 10:22:52;;;;;;;29.93;27.33;;;6.70;99.90;;;;;;5051337;28;20893;-70
2021/11/22 10:25:30;;;;;;;28.93;26.43;;;6.50;99.90;;;;;;5057198;28;20459;-73
2021/11/22 10:28:04;;;;;;;29.07;26.67;;;6.30;99.90;;;;;;5057115;28;20950;-71
2021/11/22 10:30:33;;;;;;;28.70;26.23;;;6.20;99.90;;;;;;5053456;28;20482;-72
2021/11/22 10:33:03;;;;;;;26.77;24.37;;;6.20;99.90;;;;;;5049205;28;20864;-70
2021/11/22 10:35:33;;;;;;;29.10;26.53;;;6.10;99.90;;;;;;5052278;28;20467;-74
2021/11/22 10:38:04;;;;;;;28.43;26.00;;;6.00;99.90;;;;;;5056810;28;20464;-71
2021/11/22 10:40:33;;;;;;;28.53;26.10;;;6.10;99.90;;;;;;5051442;28;20475;-70
2021/11/22 10:43:02;;;;;;;29.80;27.10;;;6.10;99.90;;;;;;5060445;28;20475;-71
2021/11/22 10:45:33;;;;;;;29.00;26.70;;;6.20;99.90;;;;;;5070845;28;20845;-73
2021/11/22 10:48:13;;;;;;;30.10;27.50;;;6.40;99.90;;;;;;5075168;28;20992;-73
2021/11/22 10:50:48;;;;;;;26.93;24.73;;;6.80;99.90;;;;;;5070339;28;20738;-70
2021/11/22 10:53:16;;;;;;;28.27;25.97;;;7.30;99.90;;;;;;5073152;28;20469;-72
2021/11/22 10:55:47;;;;;;;26.60;24.47;;;8.10;99.90;;;;;;5075640;28;20467;-70
2021/11/22 10:58:40;;;;;;;26.93;24.63;;;8.60;99.90;;;;;;5082245;28;20469;-73
2021/11/22 11:01:19;;;;;;;25.60;23.60;;;8.80;99.90;;;;;;5077549;28;20460;-72
2021/11/22 11:04:04;;;;;;;24.73;22.63;;;8.90;99.90;;;;;;5067593;28;20498;-70
2021/11/22 11:06:56;;;;;;;22.60;21.10;;;9.30;99.90;;;;;;5071055;28;20522;-70
2021/11/22 11:09:29;;;;;;;23.23;21.70;;;9.70;99.90;;;;;;5069800;28;20544;-75
2021/11/22 11:12:09;;;;;;;22.13;20.50;;;9.70;99.90;;;;;;5070008;28;20465;-70
2021/11/22 11:14:39;;;;;;;24.97;23.10;;;10.50;99.90;;;;;;5074457;28;20465;-71
2021/11/22 11:17:11;;;;;;;24.43;22.80;;;10.40;99.90;;;;;;5068677;28;20468;-71
2021/11/22 11:19:40;;;;;;;22.60;21.00;;;11.00;99.90;;;;;;5075979;28;20481;-71
2021/11/22 11:22:07;;;;;;;23.53;21.90;;;11.60;99.90;;;;;;5068298;28;20818;-73
2021/11/22 11:24:34;;;;;;;23.63;22.10;;;11.50;99.90;;;;;;5078650;28;20476;-70
2021/11/22 11:27:00;;;;;;;21.87;20.47;;;11.60;99.90;;;;;;5074691;28;21192;-71
2021/11/22 11:29:28;;;;;;;22.43;20.70;;;11.60;99.90;;;;;;5073182;28;20996;-75
2021/11/22 11:31:55;;;;;;;21.70;19.90;;;11.60;99.90;;;;;;5074316;28;21033;-72
2021/11/22 11:34:27;;;;;;;21.37;20.00;;;11.40;99.90;;;;;;5073757;28;20796;-70
2021/11/22 11:37:29;;;;;;;19.67;18.53;;;11.10;99.90;;;;;;5073506;28;20684;-72
2021/11/22 11:40:20;;;;;;;20.43;19.10;;;10.80;99.90;;;;;;5077766;28;20510;-71
2021/11/22 11:43:19;;;;;;;21.97;20.47;;;10.30;99.90;;;;;;5077295;28;20463;-72
2021/11/22 11:45:53;;;;;;;21.10;19.60;;;9.80;99.90;;;;;;5082294;28;20464;-71
2021/11/22 11:48:32;;;;;;;20.00;18.80;;;10.50;99.90;;;;;;5080476;28;20559;-71
2021/11/22 11:51:09;;;;;;;20.83;19.43;;;10.60;99.90;;;;;;5072827;28;20483;-71
2021/11/22 11:53:38;;;;;;;20.67;19.37;;;10.90;99.90;;;;;;5065628;28;20489;-72
2021/11/22 11:56:11;;;;;;;21.40;19.80;;;11.40;99.90;;;;;;5075275;28;20516;-73
2021/11/22 11:58:38;;;;;;;21.20;19.80;;;11.40;99.90;;;;;;5074749;28;20911;-71
2021/11/22 12:01:12;;;;;;;19.97;18.67;;;12.00;99.90;;;;;;5073016;28;20553;-72
2021/11/22 12:04:05;;;;;;;21.73;20.23;;;11.80;99.90;;;;;;5078480;28;20461;-74
2021/11/22 12:06:47;;;;;;;20.43;19.13;;;11.80;99.90;;;;;;5068559;28;20466;-71
2021/11/22 12:09:38;;;;;;;21.83;20.13;;;11.40;99.90;;;;;;5080950;28;21014;-72
2021/11/22 12:12:23;;;;;;;20.83;19.43;;;10.50;99.90;;;;;;5078283;28;20501;-74
2021/11/22 12:14:52;;;;;;;20.57;19.23;;;10.60;99.90;;;;;;5081905;28;20458;-71
2021/11/22 12:17:53;;;;;;;20.57;19.30;;;11.20;99.90;;;;;;5082728;28;20981;-75
2021/11/22 12:21:06;;;;;;;20.40;19.00;;;11.50;99.90;;;;;;5078799;28;20469;-71
2021/11/22 12:23:47;;;;;;;19.47;18.23;;;11.80;99.90;;;;;;5023720;28;20469;-73
2021/11/22 12:26:27;;;;;;;21.60;20.20;;;12.50;99.90;;;;;;5075873;28;20488;-74
2021/11/22 12:28:55;;;;;;;21.97;20.57;;;12.80;99.90;;;;;;5069317;28;20463;-73
2021/11/22 12:31:42;;;;;;;20.00;18.70;;;12.60;99.90;;;;;;5079104;28;20564;-71
2021/11/22 12:34:11;;;;;;;20.37;18.80;;;12.40;99.90;;;;;;5076699;28;20822;-73
2021/11/22 12:36:44;;;;;;;20.50;19.07;;;11.30;99.90;;;;;;5078369;28;20523;-72
2021/11/22 12:39:15;;;;;;;19.80;18.60;;;11.20;99.90;;;;;;5081642;28;20453;-71
2021/11/22 12:41:45;;;;;;;22.47;20.77;;;11.00;99.90;;;;;;5076724;28;20985;-71
2021/11/22 12:44:13;;;;;;;20.43;19.07;;;10.70;99.90;;;;;;5071209;28;20490;-69
2021/11/22 12:46:47;;;;;;;21.00;19.60;;;10.50;99.90;;;;;;5078630;28;20791;-69